createdAt,value
2023-01-10T00:01:45.672Z,1.64
2023-01-10T00:04:13.603Z,1.63
2023-01-10T00:06:41.476Z,1.60
2023-01-10T00:09:10.747Z,1.58
2023-01-10T00:11:56.212Z,1.58
2023-01-10T00:14:28.724Z,1.57
2023-01-10T00:16:56.759Z,1.56
2023-01-10T00:19:24.744Z,1.57
2023-01-10T00:21:52.868Z,1.55
2023-01-10T00:24:20.733Z,1.56
2023-01-10T00:26:52.091Z,1.53
2023-01-10T00:29:20.976Z,1.55
2023-01-10T00:31:50.363Z,1.54
2023-01-10T00:34:18.328Z,1.53
2023-01-10T00:36:47.927Z,1.50
2023-01-10T00:39:18.184Z,1.51
2023-01-10T00:42:03.561Z,1.49
2023-01-10T00:44:31.419Z,1.51
2023-01-10T00:47:00.708Z,1.50
2023-01-10T00:49:28.667Z,1.49
2023-01-10T00:51:58.275Z,1.50
2023-01-10T00:54:26.595Z,1.47
2023-01-10T00:56:54.488Z,1.46
2023-01-10T00:59:22.851Z,1.45
2023-01-10T01:01:50.961Z,1.47
2023-01-10T01:04:20.322Z,1.45
2023-01-10T01:06:49.049Z,1.45
2023-01-10T01:09:16.961Z,1.44
2023-01-10T01:11:44.916Z,1.44
2023-01-10T01:14:12.840Z,1.43
2023-01-10T01:16:40.797Z,1.42
2023-01-10T01:19:08.703Z,1.42
2023-01-10T01:21:37.983Z,1.41
2023-01-10T01:24:06.119Z,1.41
2023-01-10T01:26:35.344Z,1.41
2023-01-10T01:29:03.209Z,1.40
2023-01-10T01:31:31.186Z,1.40
2023-01-10T01:33:59.281Z,1.40
2023-01-10T01:36:27.172Z,1.38
2023-01-10T01:38:56.495Z,1.38
2023-01-10T01:41:41.596Z,1.37
2023-01-10T01:44:17.193Z,1.36
2023-01-10T01:46:48.287Z,1.38
2023-01-10T01:49:19.268Z,1.38
2023-01-10T01:51:49.218Z,1.38
2023-01-10T01:54:19.773Z,1.37
2023-01-10T01:56:52.635Z,1.37
2023-01-10T01:59:25.817Z,1.37
2023-01-10T02:01:59.020Z,1.38
2023-01-10T02:04:33.256Z,1.37
2023-01-10T02:07:01.273Z,1.36
2023-01-10T02:09:35.853Z,1.36
2023-01-10T02:12:04.139Z,1.36
2023-01-10T02:14:33.196Z,1.38
2023-01-10T02:17:01.112Z,1.39
2023-01-10T02:19:38.102Z,1.39
2023-01-10T02:22:35.201Z,1.38
2023-01-10T02:25:40.882Z,1.37
2023-01-10T02:28:36.279Z,1.37
2023-01-10T02:32:04.027Z,1.36
2023-01-10T02:34:40.754Z,1.36
2023-01-10T02:37:15.538Z,1.34
2023-01-10T02:39:54.268Z,1.36
2023-01-10T02:42:28.823Z,1.35
2023-01-10T02:45:06.169Z,1.35
2023-01-10T02:47:37.838Z,1.37
2023-01-10T02:50:30.841Z,1.34
2023-01-10T02:53:03.201Z,1.35
2023-01-10T02:55:41.856Z,1.35
2023-01-10T02:58:20.907Z,1.36
2023-01-10T03:00:58.233Z,1.35
2023-01-10T03:03:35.457Z,1.34
2023-01-10T03:06:24.051Z,1.33
2023-01-10T03:08:57.711Z,1.34
2023-01-10T03:11:41.013Z,1.35
2023-01-10T03:14:15.542Z,1.35
2023-01-10T03:16:47.507Z,1.34
2023-01-10T03:19:18.846Z,1.35
2023-01-10T03:21:53.683Z,1.34
2023-01-10T03:24:26.581Z,1.33
2023-01-10T03:26:59.314Z,1.33
2023-01-10T03:29:34.199Z,1.33
2023-01-10T03:32:07.407Z,1.32
2023-01-10T03:34:36.215Z,1.33
2023-01-10T03:37:14.595Z,1.34
2023-01-10T03:39:51.906Z,1.32
2023-01-10T03:42:30.033Z,1.33
2023-01-10T03:45:01.980Z,1.32
2023-01-10T03:47:36.589Z,1.31
2023-01-10T03:50:08.373Z,1.31
2023-01-10T03:52:38.656Z,1.31
2023-01-10T03:55:08.472Z,1.32
2023-01-10T03:57:36.382Z,1.31
2023-01-10T04:00:05.543Z,1.31
2023-01-10T04:02:34.001Z,1.31
2023-01-10T04:05:01.846Z,1.32
2023-01-10T04:07:29.778Z,1.33
2023-01-10T04:10:02.000Z,1.33
2023-01-10T04:12:29.836Z,1.35
2023-01-10T04:14:57.705Z,1.35
2023-01-10T04:17:25.572Z,1.36
2023-01-10T04:19:53.502Z,1.35
2023-01-10T04:22:21.315Z,1.36
2023-01-10T04:24:51.984Z,1.36
2023-01-10T04:27:21.779Z,1.36
2023-01-10T04:29:49.779Z,1.35
2023-01-10T04:32:17.739Z,1.36
2023-01-10T04:34:45.705Z,1.36
2023-01-10T04:37:13.651Z,1.38
2023-01-10T04:39:41.608Z,1.39
2023-01-10T04:42:09.572Z,1.37
2023-01-10T04:44:38.900Z,1.38
2023-01-10T04:47:10.124Z,1.38
2023-01-10T04:49:38.076Z,1.38
2023-01-10T04:52:05.975Z,1.39
2023-01-10T04:54:33.871Z,1.38
2023-01-10T04:57:01.733Z,1.37
2023-01-10T04:59:29.815Z,1.38
2023-01-10T05:01:59.805Z,1.39
2023-01-10T05:04:27.765Z,1.39
2023-01-10T05:06:55.663Z,1.39
2023-01-10T05:09:23.603Z,1.40
2023-01-10T05:11:51.542Z,1.42
2023-01-10T05:14:19.587Z,1.44
2023-01-10T05:16:47.546Z,1.43
2023-01-10T05:19:16.983Z,1.43
2023-01-10T05:21:44.868Z,1.44
2023-01-10T05:24:15.499Z,1.47
2023-01-10T05:26:46.876Z,1.47
2023-01-10T05:29:15.559Z,1.47
2023-01-10T05:31:46.202Z,1.47
2023-01-10T05:34:14.181Z,1.47
2023-01-10T05:36:46.059Z,1.47
2023-01-10T05:39:14.171Z,1.48
2023-01-10T05:41:42.092Z,1.48
2023-01-10T05:44:10.425Z,1.50
2023-01-10T05:46:38.283Z,1.50
2023-01-10T05:49:06.168Z,1.51
2023-01-10T05:51:34.120Z,1.53
2023-01-10T05:54:03.504Z,1.54
2023-01-10T05:56:31.632Z,1.54
2023-01-10T05:59:06.601Z,1.55
2023-01-10T06:01:39.628Z,1.55
2023-01-10T06:04:07.568Z,1.57
2023-01-10T06:06:35.575Z,1.57
2023-01-10T06:09:05.040Z,1.59
2023-01-10T06:11:36.509Z,1.60
2023-01-10T06:14:04.446Z,1.61
2023-01-10T06:16:32.555Z,1.60
2023-01-10T06:19:00.439Z,1.60
2023-01-10T06:21:28.357Z,1.60
2023-01-10T06:23:57.875Z,1.61
2023-01-10T06:26:27.224Z,1.61
2023-01-10T06:28:55.075Z,1.62
2023-01-10T06:31:23.064Z,1.62
2023-01-10T06:33:52.333Z,1.63
2023-01-10T06:36:20.331Z,1.64
2023-01-10T06:38:48.268Z,1.64
2023-01-10T06:41:16.178Z,1.64
2023-01-10T06:43:46.753Z,1.63
2023-01-10T06:46:16.667Z,1.65
2023-01-10T06:48:45.710Z,1.67
2023-01-10T06:51:14.374Z,1.67
2023-01-10T06:53:42.465Z,1.67
2023-01-10T06:56:10.884Z,1.69
2023-01-10T06:58:39.609Z,1.70
2023-01-10T07:01:14.864Z,1.71
2023-01-10T07:03:42.944Z,1.72
2023-01-10T07:06:11.519Z,1.73
2023-01-10T07:08:40.781Z,1.73
2023-01-10T07:11:09.444Z,1.74
2023-01-10T07:13:37.755Z,1.69
2023-01-10T07:16:06.993Z,1.70
2023-01-10T07:18:37.629Z,1.71
2023-01-10T07:21:05.979Z,1.69
2023-01-10T07:23:33.913Z,1.68
2023-01-10T07:26:04.450Z,1.71
2023-01-10T07:28:34.369Z,1.72
2023-01-10T07:31:03.165Z,1.70
2023-01-10T07:33:31.420Z,1.71
2023-01-10T07:36:01.691Z,1.72
2023-01-10T07:38:29.618Z,1.73
2023-01-10T07:40:57.662Z,1.74
2023-01-10T07:43:25.555Z,1.77
2023-01-10T07:45:53.568Z,1.75
2023-01-10T07:48:21.435Z,1.78
2023-01-10T07:50:49.329Z,1.81
2023-01-10T07:53:18.623Z,1.80
2023-01-10T07:55:46.592Z,1.79
2023-01-10T07:58:14.618Z,1.82
2023-01-10T08:00:42.663Z,1.82
2023-01-10T08:03:11.919Z,1.83
2023-01-10T08:05:39.837Z,1.83
2023-01-10T08:08:08.395Z,1.84
2023-01-10T08:10:38.917Z,1.82
2023-01-10T08:13:17.760Z,1.83
2023-01-10T08:15:47.253Z,1.85
2023-01-10T08:18:15.482Z,1.87
2023-01-10T08:20:43.446Z,1.88
2023-01-10T08:23:14.834Z,1.89
2023-01-10T08:25:44.061Z,1.90
2023-01-10T08:28:15.088Z,1.91
2023-01-10T08:30:46.143Z,1.94
2023-01-10T08:33:14.080Z,1.97
2023-01-10T08:35:43.858Z,1.98
2023-01-10T08:38:13.065Z,2.02
2023-01-10T08:40:40.911Z,2.02
2023-01-10T08:43:12.895Z,2.04
2023-01-10T08:45:41.215Z,2.05
2023-01-10T08:48:10.243Z,2.05
2023-01-10T08:50:38.179Z,2.07
2023-01-10T08:53:06.259Z,2.10
2023-01-10T08:55:35.384Z,2.11
2023-01-10T08:58:03.798Z,2.12
2023-01-10T09:00:33.157Z,2.13
2023-01-10T09:03:01.115Z,2.13
2023-01-10T09:05:29.104Z,2.15
2023-01-10T09:08:01.028Z,2.16
2023-01-10T09:10:29.269Z,2.17
2023-01-10T09:12:59.996Z,2.17
2023-01-10T09:15:30.392Z,2.19
2023-01-10T09:18:01.631Z,2.22
2023-01-10T09:20:30.708Z,2.23
2023-01-10T09:22:59.672Z,2.24
2023-01-10T09:25:28.076Z,2.26
2023-01-10T09:28:00.023Z,2.28
2023-01-10T09:30:28.544Z,2.28
2023-01-10T09:32:57.389Z,2.30
2023-01-10T09:35:28.743Z,2.32
2023-01-10T09:37:57.316Z,2.32
2023-01-10T09:40:35.268Z,2.36
2023-01-10T09:43:11.630Z,2.34
2023-01-10T09:45:50.204Z,2.36
2023-01-10T09:48:25.403Z,2.35
2023-01-10T09:51:10.363Z,2.37
2023-01-10T09:53:43.938Z,2.36
2023-01-10T09:56:15.627Z,2.39
2023-01-10T09:58:44.951Z,2.40
2023-01-10T10:01:17.251Z,2.40
2023-01-10T10:03:53.003Z,2.39
2023-01-10T10:06:24.202Z,2.41
2023-01-10T10:08:53.277Z,2.40
2023-01-10T10:11:47.378Z,2.41
2023-01-10T10:14:28.772Z,2.41
2023-01-10T10:17:10.399Z,2.40
2023-01-10T10:19:56.416Z,2.44
2023-01-10T10:22:33.990Z,2.45
2023-01-10T10:25:15.756Z,2.45
2023-01-10T10:28:06.258Z,2.48
2023-01-10T10:30:46.153Z,2.47
2023-01-10T10:33:41.072Z,2.46
2023-01-10T10:36:16.319Z,2.50
2023-01-10T10:38:49.144Z,2.49
2023-01-10T10:41:23.565Z,2.50
2023-01-10T10:43:52.253Z,2.52
2023-01-10T10:46:20.590Z,2.53
2023-01-10T10:48:57.003Z,2.54
2023-01-10T10:51:28.752Z,2.55
2023-01-10T10:53:58.959Z,2.55
2023-01-10T10:56:27.823Z,2.51
2023-01-10T10:58:57.140Z,2.53
2023-01-10T11:01:26.849Z,2.54
2023-01-10T11:03:59.398Z,2.55
2023-01-10T11:06:32.702Z,2.57
2023-01-10T11:09:05.675Z,2.57
2023-01-10T11:11:36.748Z,2.60
2023-01-10T11:14:06.815Z,2.62
2023-01-10T11:16:39.057Z,2.61
2023-01-10T11:19:20.932Z,2.64
2023-01-10T11:21:53.388Z,2.65
2023-01-10T11:24:35.215Z,2.67
2023-01-10T11:27:06.529Z,2.70
2023-01-10T11:29:39.951Z,2.69
2023-01-10T11:32:15.380Z,2.73
2023-01-10T11:34:49.172Z,2.74
2023-01-10T11:37:22.571Z,2.73
2023-01-10T11:40:11.213Z,2.79
2023-01-10T11:42:39.068Z,2.80
2023-01-10T11:45:24.147Z,2.80
2023-01-10T11:47:55.538Z,2.83
2023-01-10T11:50:26.236Z,2.85
2023-01-10T11:52:54.719Z,2.89
2023-01-10T11:55:26.636Z,2.91
2023-01-10T11:58:05.146Z,2.92
2023-01-10T12:00:36.306Z,2.89
2023-01-10T12:03:15.561Z,2.94
2023-01-10T12:05:53.869Z,2.93
2023-01-10T12:08:31.713Z,2.96
2023-01-10T12:11:07.523Z,2.95
2023-01-10T12:13:47.442Z,2.98
2023-01-10T12:16:22.473Z,2.98
2023-01-10T12:18:52.279Z,2.99
2023-01-10T12:21:27.962Z,3.03
2023-01-10T12:24:00.935Z,3.07
2023-01-10T12:26:31.955Z,3.06
2023-01-10T12:29:08.849Z,3.06
2023-01-10T12:31:40.598Z,3.07
2023-01-10T12:34:17.349Z,3.07
2023-01-10T12:36:55.968Z,3.10
2023-01-10T12:39:26.585Z,3.11
2023-01-10T12:42:30.446Z,3.11
2023-01-10T12:45:04.025Z,3.12
2023-01-10T12:47:36.157Z,3.12
2023-01-10T12:50:10.505Z,3.12
2023-01-10T12:52:47.452Z,3.14
2023-01-10T12:55:17.126Z,3.13
2023-01-10T12:57:51.924Z,3.15
2023-01-10T13:00:25.355Z,3.17
2023-01-10T13:02:55.808Z,3.21
2023-01-10T13:05:25.819Z,3.21
2023-01-10T13:07:57.060Z,3.21
2023-01-10T13:10:27.473Z,3.19
2023-01-10T13:13:02.998Z,3.22
2023-01-10T13:15:35.440Z,3.20
2023-01-10T13:18:06.680Z,3.22
2023-01-10T13:20:40.204Z,3.24
2023-01-10T13:23:22.447Z,3.24
2023-01-10T13:25:59.258Z,3.23
2023-01-10T13:28:30.965Z,3.22
2023-01-10T13:31:02.087Z,3.23
2023-01-10T13:33:32.442Z,3.23
2023-01-10T13:36:10.619Z,3.24
2023-01-10T13:38:46.710Z,3.24
2023-01-10T13:41:28.497Z,3.25
2023-01-10T13:44:07.346Z,3.28
2023-01-10T13:46:47.532Z,3.28
2023-01-10T13:49:32.916Z,3.23
2023-01-10T13:52:40.423Z,3.26
2023-01-10T13:55:29.723Z,3.26
2023-01-10T13:58:00.716Z,3.26
2023-01-10T14:01:06.873Z,3.26
2023-01-10T14:03:41.594Z,3.32
2023-01-10T14:06:15.541Z,3.31
2023-01-10T14:08:51.395Z,3.32
2023-01-10T14:11:20.814Z,3.33
2023-01-10T14:13:53.177Z,3.36
2023-01-10T14:16:35.758Z,3.40
2023-01-10T14:19:09.270Z,3.43
2023-01-10T14:21:45.586Z,3.44
2023-01-10T14:24:26.099Z,3.44
2023-01-10T14:26:57.385Z,3.46
2023-01-10T14:29:28.423Z,3.47
2023-01-10T14:31:58.094Z,3.49
2023-01-10T14:34:28.203Z,3.50
2023-01-10T14:37:00.797Z,3.55
2023-01-10T14:39:30.363Z,3.55
2023-01-10T14:42:02.685Z,3.57
2023-01-10T14:44:36.848Z,3.56
2023-01-10T14:47:06.325Z,3.59
2023-01-10T14:49:36.232Z,3.61
2023-01-10T14:52:15.332Z,3.63
2023-01-10T14:54:43.238Z,3.62
2023-01-10T14:57:20.134Z,3.62
2023-01-10T14:59:48.657Z,3.64
2023-01-10T15:02:24.736Z,3.65
2023-01-10T15:04:56.675Z,3.66
2023-01-10T15:07:25.745Z,3.65
2023-01-10T15:09:56.452Z,3.64
2023-01-10T15:12:26.916Z,3.66
2023-01-10T15:15:02.492Z,3.65
2023-01-10T15:17:32.767Z,3.64
2023-01-10T15:20:00.501Z,3.65
2023-01-10T15:22:31.310Z,3.70
2023-01-10T15:25:03.779Z,3.67
2023-01-10T15:27:33.908Z,3.68
2023-01-10T15:30:02.667Z,3.71
2023-01-10T15:32:35.744Z,3.70
2023-01-10T15:35:04.257Z,3.69
2023-01-10T15:37:37.656Z,3.71
2023-01-10T15:40:09.351Z,3.70
2023-01-10T15:42:38.224Z,3.71
2023-01-10T15:45:23.647Z,3.73
2023-01-10T15:48:00.173Z,3.75
2023-01-10T15:50:31.941Z,3.75
2023-01-10T15:53:02.016Z,3.72
2023-01-10T15:55:45.418Z,3.71
2023-01-10T15:58:19.709Z,3.72
2023-01-10T16:00:49.373Z,3.76
2023-01-10T16:03:27.533Z,3.75
2023-01-10T16:05:59.069Z,3.76
2023-01-10T16:08:29.047Z,3.75
2023-01-10T16:10:59.996Z,3.73
2023-01-10T16:13:27.844Z,3.69
2023-01-10T16:15:56.863Z,3.72
2023-01-10T16:18:26.236Z,3.70
2023-01-10T16:20:57.381Z,3.70
2023-01-10T16:23:27.108Z,3.71
2023-01-10T16:25:57.783Z,3.71
2023-01-10T16:28:27.453Z,3.72
2023-01-10T16:30:55.339Z,3.71
2023-01-10T16:33:29.419Z,3.70
2023-01-10T16:36:00.841Z,3.68
2023-01-10T16:38:29.949Z,3.67
2023-01-10T16:41:00.758Z,3.66
2023-01-10T16:43:29.382Z,3.64
2023-01-10T16:46:00.028Z,3.65
2023-01-10T16:48:29.859Z,3.65
2023-01-10T16:51:06.708Z,3.62
2023-01-10T16:53:34.639Z,3.61
2023-01-10T16:56:02.618Z,3.63
2023-01-10T16:58:30.555Z,3.62
2023-01-10T17:00:59.466Z,3.64
2023-01-10T17:03:27.976Z,3.64
2023-01-10T17:05:55.801Z,3.63
2023-01-10T17:08:25.987Z,3.62
2023-01-10T17:10:56.270Z,3.57
2023-01-10T17:13:28.440Z,3.62
2023-01-10T17:15:56.536Z,3.62
2023-01-10T17:18:26.016Z,3.62
2023-01-10T17:20:54.457Z,3.62
2023-01-10T17:23:24.425Z,3.61
2023-01-10T17:25:59.867Z,3.62
2023-01-10T17:28:28.883Z,3.62
2023-01-10T17:30:57.200Z,3.64
2023-01-10T17:33:25.295Z,3.65
2023-01-10T17:35:54.887Z,3.67
2023-01-10T17:38:25.561Z,3.65
2023-01-10T17:40:54.167Z,3.66
2023-01-10T17:43:22.540Z,3.68
2023-01-10T17:45:52.538Z,3.70
2023-01-10T17:48:20.563Z,3.72
2023-01-10T17:50:49.706Z,3.75
2023-01-10T17:53:19.065Z,3.73
2023-01-10T17:55:49.483Z,3.73
2023-01-10T17:58:18.689Z,3.74
2023-01-10T18:00:48.557Z,3.72
2023-01-10T18:03:16.793Z,3.80
2023-01-10T18:05:52.618Z,3.81
2023-01-10T18:08:20.626Z,3.81
2023-01-10T18:10:50.304Z,3.86
2023-01-10T18:13:20.368Z,3.82
2023-01-10T18:15:50.144Z,3.84
2023-01-10T18:18:21.285Z,3.82
2023-01-10T18:20:50.311Z,3.85
2023-01-10T18:23:25.488Z,3.82
2023-01-10T18:25:56.825Z,3.81
2023-01-10T18:28:39.609Z,3.81
2023-01-10T18:31:09.998Z,3.81
2023-01-10T18:33:38.152Z,3.80
2023-01-10T18:36:07.643Z,3.82
2023-01-10T18:38:36.720Z,3.82
2023-01-10T18:41:06.421Z,3.84
2023-01-10T18:43:34.395Z,3.87
2023-01-10T18:46:04.264Z,3.90
2023-01-10T18:48:32.339Z,3.89
2023-01-10T18:51:01.968Z,3.91
2023-01-10T18:53:30.088Z,3.87
2023-01-10T18:55:59.723Z,3.89
2023-01-10T18:58:31.628Z,3.86
2023-01-10T19:00:59.710Z,3.82
2023-01-10T19:03:27.622Z,3.84
2023-01-10T19:05:55.630Z,3.84
2023-01-10T19:08:23.448Z,3.84
2023-01-10T19:11:11.826Z,3.84
2023-01-10T19:13:40.682Z,3.84
2023-01-10T19:16:10.511Z,3.84
2023-01-10T19:18:38.504Z,3.85
2023-01-10T19:21:08.755Z,3.85
2023-01-10T19:23:36.445Z,3.82
2023-01-10T19:26:04.369Z,3.82
2023-01-10T19:28:32.351Z,3.85
2023-01-10T19:31:05.423Z,3.82
2023-01-10T19:33:34.582Z,3.81
2023-01-10T19:36:06.380Z,3.81
2023-01-10T19:38:34.670Z,3.86
2023-01-10T19:41:02.752Z,3.83
2023-01-10T19:43:30.939Z,3.78
2023-01-10T19:45:58.919Z,3.75
2023-01-10T19:48:28.220Z,3.71
2023-01-10T19:50:56.115Z,3.72
2023-01-10T19:53:27.148Z,3.67
2023-01-10T19:56:02.005Z,3.61
2023-01-10T19:58:32.985Z,3.58
2023-01-10T20:01:08.177Z,3.57
2023-01-10T20:03:37.978Z,3.58
2023-01-10T20:06:06.684Z,3.58
2023-01-10T20:08:34.567Z,3.57
2023-01-10T20:11:05.347Z,3.59
2023-01-10T20:13:33.727Z,3.61
2023-01-10T20:16:01.661Z,3.63
2023-01-10T20:18:30.590Z,3.66
2023-01-10T20:21:01.393Z,3.70
2023-01-10T20:23:31.943Z,3.73
2023-01-10T20:26:03.363Z,3.75
2023-01-10T20:28:32.119Z,3.83
2023-01-10T20:31:00.290Z,3.84
2023-01-10T20:33:28.507Z,3.86
2023-01-10T20:35:59.326Z,3.89
2023-01-10T20:38:27.885Z,3.88
2023-01-10T20:40:57.858Z,3.89
2023-01-10T20:43:25.962Z,3.95
2023-01-10T20:45:53.858Z,3.95
2023-01-10T20:48:22.556Z,3.95
2023-01-10T20:50:50.791Z,3.94
2023-01-10T20:53:20.048Z,3.96
2023-01-10T20:55:59.155Z,3.95
2023-01-10T20:58:27.733Z,3.98
2023-01-10T21:00:55.897Z,3.94
2023-01-10T21:03:23.889Z,3.97
2023-01-10T21:05:52.335Z,3.99
2023-01-10T21:08:23.177Z,4.02
2023-01-10T21:10:52.152Z,4.01
2023-01-10T21:13:20.090Z,3.99
2023-01-10T21:15:48.734Z,4.04
2023-01-10T21:18:17.307Z,4.06
2023-01-10T21:20:46.438Z,4.09
2023-01-10T21:23:17.254Z,4.08
2023-01-10T21:25:46.847Z,4.13
2023-01-10T21:28:14.827Z,4.13
2023-01-10T21:30:42.663Z,4.16
2023-01-10T21:33:11.850Z,4.17
2023-01-10T21:35:40.203Z,4.20
2023-01-10T21:38:08.144Z,4.22
2023-01-10T21:40:36.186Z,4.22
2023-01-10T21:43:05.561Z,4.26
2023-01-10T21:45:35.496Z,4.24
2023-01-10T21:48:03.392Z,4.22
2023-01-10T21:50:33.710Z,4.24
2023-01-10T21:53:01.919Z,4.24
2023-01-10T21:55:30.114Z,4.26
2023-01-10T21:57:58.245Z,4.28
2023-01-10T22:00:27.818Z,4.30
2023-01-10T22:02:57.476Z,4.31
2023-01-10T22:05:26.030Z,4.30
2023-01-10T22:07:54.176Z,4.34
2023-01-10T22:10:22.067Z,4.34
2023-01-10T22:12:50.113Z,4.37
2023-01-10T22:15:18.140Z,4.34
2023-01-10T22:17:48.172Z,4.34
2023-01-10T22:20:16.909Z,4.33
2023-01-10T22:22:44.922Z,4.32
2023-01-10T22:25:12.866Z,4.31
2023-01-10T22:27:42.453Z,4.34
2023-01-10T22:30:13.181Z,4.36
2023-01-10T22:32:41.149Z,4.34
2023-01-10T22:35:13.689Z,4.34
2023-01-10T22:37:41.890Z,4.35
2023-01-10T22:40:11.292Z,4.36
2023-01-10T22:42:39.247Z,4.34
2023-01-10T22:45:08.001Z,4.34
2023-01-10T22:47:35.879Z,4.34
2023-01-10T22:50:03.843Z,4.34
2023-01-10T22:52:33.486Z,4.36
2023-01-10T22:55:01.386Z,4.34
2023-01-10T22:57:32.998Z,4.34
2023-01-10T23:00:01.135Z,4.33
2023-01-10T23:02:29.261Z,4.34
2023-01-10T23:04:57.205Z,4.39
2023-01-10T23:07:25.072Z,4.38
2023-01-10T23:09:54.388Z,4.38
2023-01-10T23:12:22.378Z,4.38
2023-01-10T23:14:50.272Z,4.39
2023-01-10T23:17:18.216Z,4.40
2023-01-10T23:19:46.127Z,4.38
2023-01-10T23:22:14.025Z,4.39
2023-01-10T23:24:41.870Z,4.36
2023-01-10T23:27:11.167Z,4.34
2023-01-10T23:29:39.180Z,4.34
2023-01-10T23:32:07.114Z,4.38
2023-01-10T23:34:35.085Z,4.37
2023-01-10T23:37:03.273Z,4.44
2023-01-10T23:39:31.197Z,4.42
2023-01-10T23:41:59.105Z,4.45
2023-01-10T23:44:29.908Z,4.46
2023-01-10T23:46:57.873Z,4.44
2023-01-10T23:49:25.720Z,4.45
2023-01-10T23:51:53.532Z,4.43
2023-01-10T23:54:22.149Z,4.44
2023-01-10T23:56:52.341Z,4.43
2023-01-10T23:59:20.456Z,4.42
